Terminal Aerodrome Forecast
Issued by NWS

Home | Current Version | Previous Version | Text Only | Print | Product List | Glossary On
Versions: 1 2 3 4 5 6 7 8 9 10 11 12 13 14 15
000
FTUS46 KMTR 041333 AAA
TAFSTS
TAF AMD
KSTS 041333Z 0414/0512 18003KT P6SM VCSH BKN008 OVC100
     FM050200 24008KT P6SM VCSH FEW020 BKN100
     FM050500 16003KT P6SM VCSH BKN015 OVC100=

USA.gov is the U.S. government's official web portal to all federal, state and local government web resources and services.